createdAt,value
2023-04-03T00:02:27.176Z,100
2023-04-03T00:08:37.686Z,100
2023-04-03T00:13:34.187Z,100
2023-04-03T00:18:30.716Z,100
2023-04-03T00:23:27.325Z,100
2023-04-03T00:28:23.791Z,100
2023-04-03T00:34:34.454Z,100
2023-04-03T00:39:30.972Z,100
2023-04-03T00:44:27.536Z,100
2023-04-03T00:49:24.101Z,100
2023-04-03T00:55:34.699Z,100
2023-04-03T01:00:31.206Z,100
2023-04-03T01:05:27.788Z,100
2023-04-03T01:10:24.309Z,100
2023-04-03T01:16:35.089Z,100
2023-04-03T01:21:31.491Z,100
2023-04-03T01:26:28.169Z,100
2023-04-03T01:31:32.803Z,100
2023-04-03T01:36:29.359Z,100
2023-04-03T01:41:25.843Z,100
2023-04-03T01:47:36.614Z,100
2023-04-03T01:52:33.024Z,100
2023-04-03T01:57:29.660Z,100
2023-04-03T02:02:26.099Z,100
2023-04-03T02:08:36.832Z,100
2023-04-03T02:13:33.342Z,100
2023-04-03T02:18:29.904Z,100
2023-04-03T02:23:26.332Z,100
2023-04-03T02:29:37.027Z,100
2023-04-03T02:34:33.548Z,100
2023-04-03T02:39:30.156Z,100
2023-04-03T02:44:26.666Z,100
2023-04-03T02:50:37.667Z,100
2023-04-03T02:55:33.812Z,100
2023-04-03T03:00:30.344Z,100
2023-04-03T03:05:26.872Z,100
2023-04-03T03:11:37.551Z,100
2023-04-03T03:16:34.067Z,100
2023-04-03T03:21:30.575Z,100
2023-04-03T03:26:27.152Z,100
2023-04-03T03:32:37.846Z,100
2023-04-03T03:37:34.347Z,100
2023-04-03T03:42:30.923Z,100
2023-04-03T03:47:27.546Z,100
2023-04-03T03:53:38.105Z,100
2023-04-03T03:58:34.609Z,100
2023-04-03T04:03:31.337Z,100
2023-04-03T04:08:27.765Z,100
2023-04-03T04:13:24.205Z,100
2023-04-03T04:19:34.877Z,100
2023-04-03T04:24:31.365Z,100
2023-04-03T04:29:27.967Z,100
2023-04-03T04:34:24.453Z,100
2023-04-03T04:40:35.114Z,100
2023-04-03T04:50:28.216Z,100
2023-04-03T04:55:24.768Z,100
2023-04-03T05:01:35.629Z,100
2023-04-03T05:06:31.932Z,100
2023-04-03T05:11:28.578Z,100
2023-04-03T05:22:35.653Z,100
2023-04-03T05:27:32.177Z,100
2023-04-03T05:32:28.849Z,100
2023-04-03T05:37:25.240Z,100
2023-04-03T05:43:35.954Z,100
2023-04-03T05:48:32.444Z,100
2023-04-03T05:53:29.068Z,100
2023-04-03T05:58:25.534Z,100
2023-04-03T06:04:36.332Z,100
2023-04-03T06:09:32.784Z,100
2023-04-03T06:14:29.245Z,100
2023-04-03T06:19:25.758Z,100
2023-04-03T06:25:36.524Z,100
2023-04-03T06:30:32.986Z,100
2023-04-03T06:35:29.552Z,100
2023-04-03T06:40:26.069Z,100
2023-04-03T06:46:36.813Z,100
2023-04-03T06:51:33.255Z,100
2023-04-03T06:56:29.765Z,100
2023-04-03T07:01:26.319Z,100
2023-04-03T07:07:37.009Z,100
2023-04-03T07:12:33.563Z,100
2023-04-03T07:17:30.162Z,100
2023-04-03T07:22:26.563Z,100
2023-04-03T07:28:37.265Z,100
2023-04-03T07:33:33.735Z,100
2023-04-03T07:38:30.330Z,99.1
2023-04-03T07:40:58.533Z,97.7
2023-04-03T07:43:26.910Z,97.3
2023-04-03T07:49:37.485Z,94.7
2023-04-03T07:54:34.001Z,94.3
2023-04-03T07:59:30.565Z,91.2
2023-04-03T08:04:27.258Z,85.8
2023-04-03T08:09:23.615Z,80.6
2023-04-03T08:15:34.453Z,80.7
2023-04-03T08:20:30.829Z,77.1
2023-04-03T08:25:27.403Z,77.5
2023-04-03T08:30:23.868Z,79.4
2023-04-03T08:36:34.518Z,77.4
2023-04-03T08:41:31.079Z,79.9
2023-04-03T08:46:27.718Z,73.5
2023-04-03T08:52:38.250Z,72.7
2023-04-03T08:57:34.811Z,73.5
2023-04-03T09:02:31.415Z,72.5
2023-04-03T09:07:27.851Z,63.6
2023-04-03T09:12:24.388Z,61.2
2023-04-03T09:18:35.039Z,61.5
2023-04-03T09:23:31.680Z,61
2023-04-03T09:28:29.290Z,58
2023-04-03T09:33:24.644Z,56.6
2023-04-03T09:39:35.319Z,57.2
2023-04-03T09:44:32.030Z,56.4
2023-04-03T09:49:36.572Z,55.9
2023-04-03T09:54:33.117Z,53.9
2023-04-03T09:59:29.670Z,51.7
2023-04-03T10:04:26.195Z,51.8
2023-04-03T10:10:37.176Z,50.8
2023-04-03T10:15:33.513Z,50.6
2023-04-03T10:20:29.885Z,48.7
2023-04-03T10:25:26.440Z,48.1
2023-04-03T10:31:37.218Z,50.3
2023-04-03T10:36:33.604Z,48.4
2023-04-03T10:41:30.250Z,48.9
2023-04-03T10:46:26.855Z,47.5
2023-04-03T10:52:39.289Z,47.7
2023-04-03T10:57:33.920Z,47.5
2023-04-03T11:02:31.463Z,47.8
2023-04-03T11:07:27.059Z,48.6
2023-04-03T11:13:37.728Z,48.8
2023-04-03T11:18:34.156Z,45.4
2023-04-03T11:23:42.358Z,44.7
2023-04-03T11:28:27.276Z,45.5
2023-04-03T11:34:37.911Z,44.2
2023-04-03T11:39:34.414Z,44.8
2023-04-03T11:44:30.946Z,44.9
2023-04-03T11:49:27.505Z,43.2
2023-04-03T11:55:43.527Z,38.9
2023-04-03T12:00:34.703Z,38.7
2023-04-03T12:05:31.275Z,37
2023-04-03T12:10:32.288Z,35.1
2023-04-03T12:15:24.354Z,34.6
2023-04-03T12:21:34.984Z,33.1
2023-04-03T12:26:38.369Z,34.9
2023-04-03T12:31:28.063Z,31.8
2023-04-03T12:37:38.778Z,33.8
2023-04-03T12:42:35.225Z,33.9
2023-04-03T12:47:31.831Z,30.7
2023-04-03T12:52:28.310Z,31.1
2023-04-03T12:57:24.957Z,30.6
2023-04-03T13:03:35.563Z,29.3
2023-04-03T13:08:32.110Z,28.7
2023-04-03T13:13:28.565Z,29.8
2023-04-03T13:18:25.101Z,27.5
2023-04-03T13:24:35.789Z,27.1
2023-04-03T13:29:32.328Z,29
2023-04-03T13:34:28.853Z,29.2
2023-04-03T13:39:25.365Z,25.2
2023-04-03T13:45:36.373Z,29.8
2023-04-03T13:50:32.593Z,27.8
2023-04-03T13:55:29.110Z,26.5
2023-04-03T14:00:25.693Z,24.4
2023-04-03T14:06:36.384Z,25.6
2023-04-03T14:11:32.865Z,25.9
2023-04-03T14:16:29.436Z,24.8
2023-04-03T14:27:36.554Z,24.5
2023-04-03T14:32:33.201Z,25
2023-04-03T14:37:29.730Z,24.3
2023-04-03T14:42:26.206Z,23.1
2023-04-03T14:48:36.861Z,23
2023-04-03T14:53:38.804Z,21.8
2023-04-03T14:58:29.948Z,21.9
2023-04-03T15:03:26.633Z,21.9
2023-04-03T15:09:37.176Z,24.7
2023-04-03T15:14:36.789Z,20.9
2023-04-03T15:19:30.146Z,22.4
2023-04-03T15:24:26.787Z,21
2023-04-03T15:30:37.630Z,23.3
2023-04-03T15:35:33.905Z,23.1
2023-04-03T15:40:30.464Z,22.7
2023-04-03T15:45:27.055Z,22.4
2023-04-03T15:51:37.716Z,24.1
2023-04-03T15:56:34.158Z,24.2
2023-04-03T16:01:30.730Z,22.3
2023-04-03T16:06:27.247Z,22.5
2023-04-03T16:11:23.765Z,21.8
2023-04-03T16:17:34.443Z,23.4
2023-04-03T16:22:30.937Z,22.2
2023-04-03T16:27:27.523Z,22.7
2023-04-03T16:33:38.168Z,22.9
2023-04-03T16:38:34.688Z,23.2
2023-04-03T16:43:31.263Z,23.4
2023-04-03T16:48:27.835Z,23.4
2023-04-03T16:54:38.444Z,23.3
2023-04-03T16:59:34.953Z,24.4
2023-04-03T17:04:31.480Z,24.4
2023-04-03T17:09:28.078Z,25.7
2023-04-03T17:14:24.607Z,25.5
2023-04-03T17:20:35.279Z,26.1
2023-04-03T17:25:31.745Z,26
2023-04-03T17:30:28.311Z,26.9
2023-04-03T17:35:24.861Z,28.1
2023-04-03T17:41:35.542Z,29.3
2023-04-03T17:46:33.866Z,32.8
2023-04-03T17:51:28.640Z,34.6
2023-04-03T17:56:25.149Z,37.7
2023-04-03T18:02:35.833Z,40.5
2023-04-03T18:07:32.370Z,42.1
2023-04-03T18:12:28.927Z,44.1
2023-04-03T18:17:25.482Z,45.8
2023-04-03T18:23:36.146Z,47.8
2023-04-03T18:28:32.571Z,47.6
2023-04-03T18:33:29.135Z,48.3
2023-04-03T18:38:25.703Z,48.9
2023-04-03T18:44:36.400Z,50
2023-04-03T18:49:32.952Z,50.6
2023-04-03T18:54:29.398Z,51.2
2023-04-03T18:59:25.949Z,53
2023-04-03T19:05:36.571Z,52.2
2023-04-03T19:10:33.162Z,53.2
2023-04-03T19:15:29.623Z,53.4
2023-04-03T19:20:26.346Z,53.6
2023-04-03T19:26:36.852Z,54.9
2023-04-03T19:31:33.367Z,56.8
2023-04-03T19:36:29.984Z,55.8
2023-04-03T19:41:26.502Z,55
2023-04-03T19:47:37.239Z,54.9
2023-04-03T19:52:33.666Z,56.5
2023-04-03T19:57:30.183Z,56.4
2023-04-03T20:02:26.847Z,57.4
2023-04-03T20:08:37.412Z,58.6
2023-04-03T20:13:33.877Z,58.5
2023-04-03T20:18:30.414Z,59.5
2023-04-03T20:23:26.997Z,60.1
2023-04-03T20:29:37.618Z,61
2023-04-03T20:34:34.136Z,62.2
2023-04-03T20:39:30.726Z,62.5
2023-04-03T20:44:27.328Z,65.6
2023-04-03T20:50:37.993Z,64.6
2023-04-03T20:55:34.392Z,64.4
2023-04-03T21:00:30.906Z,67.3
2023-04-03T21:05:27.437Z,68.9
2023-04-03T21:11:38.149Z,68.3
2023-04-03T21:16:34.689Z,72
2023-04-03T21:21:31.224Z,72.8
2023-04-03T21:26:27.734Z,71.7
2023-04-03T21:31:24.286Z,76
2023-04-03T21:37:34.919Z,72.6
2023-04-03T21:42:31.463Z,73.3
2023-04-03T21:47:28.124Z,73.8
2023-04-03T21:52:24.529Z,75
2023-04-03T21:58:35.206Z,75.3
2023-04-03T22:08:28.250Z,78.2
2023-04-03T22:13:24.796Z,77.6
2023-04-03T22:19:35.453Z,80.9
2023-04-03T22:24:31.975Z,80.3
2023-04-03T22:29:28.576Z,80.5
2023-04-03T22:40:35.726Z,82.4
2023-04-03T22:45:32.243Z,82.4
2023-04-03T22:50:28.812Z,85.1
2023-04-03T22:55:25.308Z,82.6
2023-04-03T23:01:38.003Z,82.8
2023-04-03T23:06:32.552Z,83.4
2023-04-03T23:11:29.041Z,82.7
2023-04-03T23:16:25.635Z,82.8
2023-04-03T23:22:36.219Z,84
2023-04-03T23:27:32.863Z,84.2
2023-04-03T23:32:29.325Z,86
2023-04-03T23:37:25.807Z,84.9
2023-04-03T23:43:36.559Z,81.1
2023-04-03T23:48:33.125Z,82.3
2023-04-03T23:53:29.692Z,83.7
2023-04-03T23:58:26.119Z,83.9
